Time;durP1;ratioP1;P1;durP2;ratioP2;P2;SDS_P1;SDS_P2;PMS_P1;PMS_P2;Temp;Humidity;BMP_temperature;BMP_pressure;BME280_temperature;BME280_humidity;BME280_pressure;Samples;Min_cycle;Max_cycle;Signal;HPM_P1;HPM_P2
2024/02/04 00:01:27;;;;;;;1.95;0.60;;;;;;;;;;10254431;28;20134;-83
2024/02/04 00:06:30;;;;;;;0.65;0.50;;;;;;;;;;10258446;28;20055;-83
2024/02/04 00:11:35;;;;;;;0.40;0.40;;;;;;;;;;10263489;28;20051;-82
2024/02/04 00:16:39;;;;;;;1.13;0.50;;;;;;;;;;10258345;28;20133;-83
2024/02/04 00:21:42;;;;;;;0.50;0.40;;;;;;;;;;10258504;28;20101;-83
2024/02/04 00:26:47;;;;;;;0.38;0.38;;;;;;;;;;10259177;28;20081;-83
2024/02/04 00:31:50;;;;;;;0.90;0.50;;;;;;;;;;10263129;28;20196;-83
2024/02/04 00:36:53;;;;;;;0.52;0.30;;;;;;;;;;10257526;28;20116;-82
2024/02/04 00:41:58;;;;;;;0.30;0.30;;;;;;;;;;10257268;28;20078;-83
2024/02/04 00:47:01;;;;;;;0.43;0.40;;;;;;;;;;10249400;28;20138;-83
2024/02/04 00:52:05;;;;;;;0.40;0.40;;;;;;;;;;10251333;28;20063;-83
2024/02/04 00:57:10;;;;;;;1.23;0.40;;;;;;;;;;10250883;28;20129;-83
2024/02/04 01:02:13;;;;;;;0.40;0.40;;;;;;;;;;10244147;28;20809;-82
2024/02/04 01:07:17;;;;;;;1.95;0.40;;;;;;;;;;10253543;28;20134;-84
2024/02/04 01:12:21;;;;;;;0.90;0.40;;;;;;;;;;10255343;28;20104;-82
2024/02/04 01:17:26;;;;;;;0.43;0.40;;;;;;;;;;10258825;28;20074;-83
2024/02/04 01:22:30;;;;;;;0.40;0.40;;;;;;;;;;10247796;28;20106;-83
2024/02/04 01:27:35;;;;;;;0.80;0.57;;;;;;;;;;10246407;28;20043;-83
2024/02/04 01:32:38;;;;;;;0.45;0.45;;;;;;;;;;10256764;28;20595;-83
2024/02/04 01:37:43;;;;;;;0.35;0.35;;;;;;;;;;10254476;28;20058;-83
2024/02/04 01:42:48;;;;;;;0.55;0.40;;;;;;;;;;10252809;28;20182;-83
2024/02/04 01:47:52;;;;;;;1.33;0.50;;;;;;;;;;10255454;28;20133;-83
2024/02/04 01:52:56;;;;;;;0.90;0.50;;;;;;;;;;10259021;28;20672;-84
2024/02/04 01:58:00;;;;;;;0.30;0.30;;;;;;;;;;10256809;28;20143;-84
2024/02/04 02:03:06;;;;;;;0.50;0.30;;;;;;;;;;10253717;28;20123;-83
2024/02/04 02:08:11;;;;;;;0.40;0.40;;;;;;;;;;10257479;28;20067;-82
2024/02/04 02:13:23;;;;;;;1.67;0.40;;;;;;;;;;10259532;28;20122;-83
2024/02/04 02:18:30;;;;;;;0.95;0.50;;;;;;;;;;10252216;28;20122;-84
2024/02/04 02:23:41;;;;;;;0.47;0.40;;;;;;;;;;10250679;28;20133;-83
2024/02/04 02:28:46;;;;;;;1.02;0.50;;;;;;;;;;10262857;28;20661;-83
2024/02/04 02:33:49;;;;;;;1.00;0.50;;;;;;;;;;10267627;28;20073;-83
2024/02/04 02:39:00;;;;;;;0.50;0.50;;;;;;;;;;10259074;28;20077;-84
2024/02/04 02:44:08;;;;;;;0.40;0.40;;;;;;;;;;10268228;28;20054;-83
2024/02/04 02:49:11;;;;;;;0.40;0.40;;;;;;;;;;10266931;28;20130;-83
2024/02/04 02:54:15;;;;;;;0.40;0.40;;;;;;;;;;10262852;28;20055;-84
2024/02/04 02:59:19;;;;;;;0.50;0.40;;;;;;;;;;10255000;28;20050;-83
2024/02/04 03:04:23;;;;;;;1.45;0.52;;;;;;;;;;10260674;28;20507;-83
2024/02/04 03:09:26;;;;;;;0.93;0.55;;;;;;;;;;10258335;28;20155;-83
2024/02/04 03:14:32;;;;;;;0.90;0.60;;;;;;;;;;10262573;28;20043;-83
2024/02/04 03:19:37;;;;;;;0.60;0.30;;;;;;;;;;10260693;28;20074;-83
2024/02/04 03:24:40;;;;;;;0.40;0.30;;;;;;;;;;10261167;28;20049;-83
2024/02/04 03:29:45;;;;;;;0.25;0.25;;;;;;;;;;10267801;28;20051;-83
2024/02/04 03:34:49;;;;;;;0.95;0.60;;;;;;;;;;10259796;28;20125;-83
2024/02/04 03:39:52;;;;;;;0.63;0.35;;;;;;;;;;10266457;28;20342;-84
2024/02/04 03:44:57;;;;;;;0.50;0.40;;;;;;;;;;10259943;28;20918;-83
2024/02/04 03:50:01;;;;;;;0.40;0.40;;;;;;;;;;10260382;28;20075;-84
2024/02/04 03:55:05;;;;;;;2.70;0.50;;;;;;;;;;10262589;28;20039;-83
2024/02/04 04:00:11;;;;;;;0.45;0.30;;;;;;;;;;10259552;28;20051;-83
2024/02/04 04:05:15;;;;;;;0.70;0.38;;;;;;;;;;10259812;28;20117;-83
2024/02/04 04:10:19;;;;;;;0.45;0.22;;;;;;;;;;10258038;28;20043;-84
2024/02/04 04:15:23;;;;;;;0.47;0.30;;;;;;;;;;10262121;28;20157;-83
2024/02/04 04:20:27;;;;;;;0.30;0.30;;;;;;;;;;10252103;28;20053;-83
2024/02/04 04:25:30;;;;;;;0.30;0.30;;;;;;;;;;10254746;28;20128;-83
2024/02/04 04:30:34;;;;;;;0.30;0.30;;;;;;;;;;10259111;28;20053;-84
2024/02/04 04:35:38;;;;;;;0.30;0.25;;;;;;;;;;10260425;28;20063;-83
2024/02/04 04:40:41;;;;;;;0.68;0.40;;;;;;;;;;10260299;28;20293;-83
2024/02/04 04:45:46;;;;;;;0.30;0.30;;;;;;;;;;10256595;28;20134;-84
2024/02/04 04:50:49;;;;;;;0.20;0.20;;;;;;;;;;10256591;28;20039;-83
2024/02/04 04:55:52;;;;;;;0.22;0.22;;;;;;;;;;10257824;28;20061;-84
2024/02/04 05:00:57;;;;;;;0.80;0.40;;;;;;;;;;10258646;28;20117;-83
2024/02/04 05:06:01;;;;;;;2.15;0.40;;;;;;;;;;10258647;28;20055;-84
2024/02/04 05:11:05;;;;;;;0.20;0.20;;;;;;;;;;10257619;28;20138;-83
2024/02/04 05:16:09;;;;;;;0.30;0.30;;;;;;;;;;10258868;28;20145;-83
2024/02/04 05:21:13;;;;;;;0.40;0.40;;;;;;;;;;10254610;28;20462;-83
2024/02/04 05:26:19;;;;;;;0.20;0.20;;;;;;;;;;10269140;28;20087;-83
2024/02/04 05:31:24;;;;;;;0.40;0.40;;;;;;;;;;10270769;28;20058;-83
2024/02/04 05:36:27;;;;;;;0.60;0.40;;;;;;;;;;10283106;28;20367;-84
2024/02/04 05:41:30;;;;;;;0.75;0.47;;;;;;;;;;10263366;28;20064;-84
2024/02/04 05:46:35;;;;;;;0.30;0.30;;;;;;;;;;10269316;28;20134;-83
2024/02/04 05:51:40;;;;;;;0.55;0.30;;;;;;;;;;10263031;28;20050;-83
2024/02/04 05:56:43;;;;;;;0.30;0.30;;;;;;;;;;10262629;28;20142;-84
2024/02/04 06:01:48;;;;;;;0.30;0.30;;;;;;;;;;10267822;28;20131;-83
2024/02/04 06:06:51;;;;;;;0.40;0.20;;;;;;;;;;10267881;28;20138;-83
2024/02/04 06:11:55;;;;;;;0.20;0.20;;;;;;;;;;10271905;28;20042;-83
2024/02/04 06:16:59;;;;;;;0.65;0.20;;;;;;;;;;10267683;28;20059;-83
2024/02/04 06:22:03;;;;;;;0.22;0.22;;;;;;;;;;10266091;28;20074;-83
2024/02/04 06:27:06;;;;;;;0.32;0.22;;;;;;;;;;10272920;28;20047;-84
2024/02/04 06:32:11;;;;;;;0.28;0.28;;;;;;;;;;10266961;28;20066;-84
2024/02/04 06:37:15;;;;;;;0.43;0.43;;;;;;;;;;10291416;28;20059;-86
2024/02/04 06:42:18;;;;;;;0.20;0.20;;;;;;;;;;10279491;28;20138;-89
2024/02/04 06:47:23;;;;;;;0.32;0.30;;;;;;;;;;10274380;28;20046;-88
2024/02/04 06:52:26;;;;;;;0.32;0.30;;;;;;;;;;10272266;28;20102;-88
2024/02/04 06:57:29;;;;;;;0.47;0.30;;;;;;;;;;10280317;28;20051;-85
2024/02/04 07:02:34;;;;;;;0.25;0.25;;;;;;;;;;10268901;28;20126;-88
2024/02/04 07:07:37;;;;;;;0.45;0.20;;;;;;;;;;10264827;28;20057;-87
2024/02/04 07:12:41;;;;;;;0.38;0.20;;;;;;;;;;10275094;28;20679;-88
2024/02/04 07:17:45;;;;;;;0.45;0.30;;;;;;;;;;10266607;28;20151;-85
2024/02/04 07:22:49;;;;;;;0.57;0.40;;;;;;;;;;10265297;28;20102;-86
2024/02/04 07:27:52;;;;;;;0.25;0.25;;;;;;;;;;10268062;28;20618;-90
2024/02/04 07:32:58;;;;;;;0.30;0.30;;;;;;;;;;10275396;28;20380;-86
2024/02/04 07:38:01;;;;;;;0.20;0.20;;;;;;;;;;10272267;28;20055;-89
2024/02/04 07:43:05;;;;;;;0.43;0.40;;;;;;;;;;10263526;28;20049;-86
2024/02/04 07:48:10;;;;;;;0.35;0.30;;;;;;;;;;10264971;28;20050;-87
2024/02/04 07:53:14;;;;;;;0.22;0.20;;;;;;;;;;10269776;28;20123;-88
2024/02/04 07:58:17;;;;;;;0.95;0.35;;;;;;;;;;10266038;28;20078;-90
2024/02/04 08:03:22;;;;;;;0.20;0.20;;;;;;;;;;10271232;28;20051;-89
2024/02/04 08:08:25;;;;;;;0.40;0.40;;;;;;;;;;10266296;28;20089;-88
2024/02/04 08:13:29;;;;;;;0.30;0.30;;;;;;;;;;10263399;28;20082;-85
2024/02/04 08:18:33;;;;;;;0.55;0.40;;;;;;;;;;10263368;28;20055;-90
2024/02/04 08:23:44;;;;;;;0.55;0.40;;;;;;;;;;10270412;28;20941;-85
2024/02/04 08:28:47;;;;;;;0.57;0.30;;;;;;;;;;10268611;28;20076;-86
2024/02/04 08:33:52;;;;;;;0.30;0.30;;;;;;;;;;10261001;28;20058;-85
2024/02/04 08:38:56;;;;;;;0.52;0.40;;;;;;;;;;10272603;28;20084;-86
2024/02/04 08:43:59;;;;;;;0.30;0.30;;;;;;;;;;10270427;28;20141;-88
2024/02/04 08:49:05;;;;;;;0.30;0.30;;;;;;;;;;10261241;28;20055;-83
2024/02/04 08:54:09;;;;;;;0.73;0.30;;;;;;;;;;10266444;28;20054;-83
2024/02/04 08:59:12;;;;;;;0.30;0.30;;;;;;;;;;10253603;28;20134;-82
2024/02/04 09:04:17;;;;;;;0.63;0.40;;;;;;;;;;10263498;28;20070;-83
2024/02/04 09:09:20;;;;;;;0.20;0.20;;;;;;;;;;10258835;28;20059;-84
2024/02/04 09:14:24;;;;;;;0.35;0.30;;;;;;;;;;10260290;28;20126;-83
2024/02/04 09:19:32;;;;;;;0.60;0.35;;;;;;;;;;10262769;28;20074;-84
2024/02/04 09:24:36;;;;;;;0.30;0.30;;;;;;;;;;10272046;28;20051;-86
2024/02/04 09:29:39;;;;;;;0.52;0.35;;;;;;;;;;10266309;28;20118;-87
2024/02/04 09:34:48;;;;;;;0.68;0.40;;;;;;;;;;10262393;28;20066;-88
2024/02/04 09:39:57;;;;;;;0.38;0.38;;;;;;;;;;10271189;28;20106;-85
2024/02/04 09:45:00;;;;;;;0.20;0.20;;;;;;;;;;10262085;28;20153;-84
2024/02/04 09:50:06;;;;;;;0.22;0.20;;;;;;;;;;10268650;28;20078;-88
2024/02/04 09:55:12;;;;;;;0.50;0.30;;;;;;;;;;10269380;28;20352;-88
2024/02/04 10:00:19;;;;;;;0.20;0.20;;;;;;;;;;10258221;28;20386;-86
2024/02/04 10:05:24;;;;;;;0.55;0.40;;;;;;;;;;10267365;28;20058;-87
2024/02/04 10:10:30;;;;;;;1.08;0.30;;;;;;;;;;10260745;28;20055;-83
2024/02/04 10:15:33;;;;;;;0.30;0.30;;;;;;;;;;10268396;28;20050;-83
2024/02/04 10:20:38;;;;;;;1.98;0.30;;;;;;;;;;10258833;28;20175;-84
2024/02/04 10:25:41;;;;;;;0.20;0.20;;;;;;;;;;10260836;28;20082;-83
2024/02/04 10:30:45;;;;;;;0.40;0.40;;;;;;;;;;10271512;28;20051;-84
2024/02/04 10:35:50;;;;;;;0.30;0.30;;;;;;;;;;10266167;28;20138;-83
2024/02/04 10:41:00;;;;;;;0.50;0.47;;;;;;;;;;10273337;28;20125;-87
2024/02/04 10:46:12;;;;;;;1.35;0.80;;;;;;;;;;10272700;28;20070;-85
2024/02/04 10:51:18;;;;;;;0.32;0.32;;;;;;;;;;10269524;28;20683;-88
2024/02/04 10:56:26;;;;;;;0.40;0.35;;;;;;;;;;10265879;28;20058;-87
2024/02/04 11:01:31;;;;;;;0.30;0.30;;;;;;;;;;10266299;28;20158;-88
2024/02/04 11:06:37;;;;;;;0.47;0.30;;;;;;;;;;10263534;28;20058;-88
2024/02/04 11:11:42;;;;;;;0.30;0.30;;;;;;;;;;10547773;23;20059;-82
2024/02/04 11:17:13;;;;;;;0.40;0.40;;;;;;;;;;10154857;29;20052;-82
2024/02/04 11:22:33;;;;;;;0.80;0.50;;;;;;;;;;10149469;29;20064;-82
2024/02/04 11:27:37;;;;;;;0.45;0.20;;;;;;;;;;10139773;29;20052;-81
2024/02/04 11:32:42;;;;;;;1.52;0.55;;;;;;;;;;10149740;29;20041;-82
2024/02/04 11:37:47;;;;;;;0.63;0.50;;;;;;;;;;10145174;29;20710;-82
2024/02/04 11:42:51;;;;;;;0.52;0.50;;;;;;;;;;10156667;29;20045;-82
2024/02/04 11:48:01;;;;;;;0.95;0.52;;;;;;;;;;10156750;29;20119;-81
2024/02/04 11:53:09;;;;;;;1.42;0.43;;;;;;;;;;10146191;29;20147;-82
2024/02/04 11:58:13;;;;;;;0.40;0.40;;;;;;;;;;10155172;29;20059;-82
2024/02/04 12:03:16;;;;;;;0.20;0.20;;;;;;;;;;10138459;29;20072;-82
2024/02/04 12:08:23;;;;;;;0.50;0.50;;;;;;;;;;10136651;29;20052;-83
2024/02/04 12:13:28;;;;;;;;;;;;;;;;;;10137290;29;20436;-82
2024/02/04 12:18:31;;;;;;;0.57;0.30;;;;;;;;;;10134003;29;19999;-81
2024/02/04 12:23:36;;;;;;;0.38;0.30;;;;;;;;;;10143721;29;20044;-82
2024/02/04 12:28:42;;;;;;;0.30;0.22;;;;;;;;;;10133115;29;20048;-80
2024/02/04 12:33:54;;;;;;;0.75;0.40;;;;;;;;;;10142405;29;20052;-82
2024/02/04 12:39:01;;;;;;;0.93;0.30;;;;;;;;;;10145203;29;20056;-81
2024/02/04 12:44:05;;;;;;;1.05;0.50;;;;;;;;;;10144627;29;20100;-82
2024/02/04 12:49:08;;;;;;;0.32;0.32;;;;;;;;;;10145720;29;20594;-82
2024/02/04 12:54:14;;;;;;;0.82;0.73;;;;;;;;;;10150289;29;20052;-82
2024/02/04 12:59:28;;;;;;;0.50;0.50;;;;;;;;;;10138261;29;20152;-82
2024/02/04 13:04:36;;;;;;;0.22;0.22;;;;;;;;;;10134069;29;20080;-82
2024/02/04 13:09:42;;;;;;;0.70;0.50;;;;;;;;;;10123437;29;20056;-82
2024/02/04 13:14:48;;;;;;;1.25;0.40;;;;;;;;;;10145975;29;20503;-82
2024/02/04 13:19:52;;;;;;;0.43;0.40;;;;;;;;;;10161160;29;20062;-82
2024/02/04 13:24:56;;;;;;;0.30;0.30;;;;;;;;;;10148973;29;20123;-82
2024/02/04 13:30:00;;;;;;;0.20;0.20;;;;;;;;;;10143042;29;20072;-82
2024/02/04 13:35:11;;;;;;;0.30;0.30;;;;;;;;;;10156755;29;20083;-83
2024/02/04 13:45:49;;;;;;;0.57;0.40;;;;;;;;;;10412796;23;20047;-83
2024/02/04 13:50:54;;;;;;;0.47;0.40;;;;;;;;;;10200217;29;20047;-85
2024/02/04 13:55:58;;;;;;;1.23;0.40;;;;;;;;;;10199724;28;20063;-86
2024/02/04 14:01:03;;;;;;;1.77;0.50;;;;;;;;;;10199967;28;20095;-85
2024/02/04 14:06:07;;;;;;;0.30;0.30;;;;;;;;;;10203391;28;20047;-84
2024/02/04 14:11:10;;;;;;;0.50;0.45;;;;;;;;;;10201538;28;20767;-83
2024/02/04 14:16:15;;;;;;;0.38;0.38;;;;;;;;;;10194781;28;20056;-83
2024/02/04 14:21:19;;;;;;;0.60;0.40;;;;;;;;;;10205222;28;20514;-85
2024/02/04 14:26:22;;;;;;;1.05;0.55;;;;;;;;;;10203373;29;20150;-85
2024/02/04 14:31:27;;;;;;;0.65;0.30;;;;;;;;;;10212674;28;20090;-84
2024/02/04 14:36:31;;;;;;;0.20;0.20;;;;;;;;;;10198453;28;20054;-85
2024/02/04 14:41:36;;;;;;;0.30;0.30;;;;;;;;;;10203719;28;20051;-85
2024/02/04 14:46:41;;;;;;;0.30;0.30;;;;;;;;;;10197381;29;20086;-83
2024/02/04 14:51:48;;;;;;;0.37;0.37;;;;;;;;;;10201193;28;20086;-84
2024/02/04 14:56:52;;;;;;;0.40;0.30;;;;;;;;;;10199389;28;20095;-82
2024/02/04 15:01:58;;;;;;;0.30;0.30;;;;;;;;;;10197039;28;20066;-83
2024/02/04 15:07:03;;;;;;;0.30;0.30;;;;;;;;;;10202368;28;20061;-83
2024/02/04 15:12:07;;;;;;;0.40;0.32;;;;;;;;;;10203919;28;20543;-83
2024/02/04 15:17:13;;;;;;;0.75;0.30;;;;;;;;;;10206794;28;20124;-82
2024/02/04 15:22:17;;;;;;;0.20;0.20;;;;;;;;;;10205106;28;20135;-83
2024/02/04 15:27:21;;;;;;;0.40;0.40;;;;;;;;;;10204775;28;20055;-82
2024/02/04 15:32:27;;;;;;;0.45;0.30;;;;;;;;;;10212242;28;20118;-82
2024/02/04 15:37:32;;;;;;;0.90;0.45;;;;;;;;;;10201814;28;20123;-85
2024/02/04 15:42:36;;;;;;;0.45;0.45;;;;;;;;;;10202591;29;20534;-85
2024/02/04 15:47:50;;;;;;;0.55;0.43;;;;;;;;;;10207553;28;20144;-84
2024/02/04 15:52:54;;;;;;;0.55;0.50;;;;;;;;;;10208069;28;20584;-83
2024/02/04 15:58:03;;;;;;;2.20;1.00;;;;;;;;;;10205937;28;20055;-84
2024/02/04 16:03:09;;;;;;;0.70;0.55;;;;;;;;;;10211314;28;20074;-84
2024/02/04 16:08:14;;;;;;;0.70;0.40;;;;;;;;;;10209016;29;20547;-85
2024/02/04 16:13:18;;;;;;;0.50;0.50;;;;;;;;;;10204279;29;20066;-84
2024/02/04 16:18:24;;;;;;;0.20;0.20;;;;;;;;;;10204552;28;20398;-83
2024/02/04 16:23:28;;;;;;;1.40;0.50;;;;;;;;;;10202290;28;20051;-84
2024/02/04 16:28:32;;;;;;;1.20;1.10;;;;;;;;;;10216717;28;20058;-84
2024/02/04 16:33:37;;;;;;;0.52;0.50;;;;;;;;;;10202461;28;20055;-85
2024/02/04 16:38:44;;;;;;;0.57;0.52;;;;;;;;;;10200814;28;20081;-84
2024/02/04 16:43:47;;;;;;;1.48;0.90;;;;;;;;;;10206427;28;20089;-84
2024/02/04 16:48:52;;;;;;;0.50;0.50;;;;;;;;;;10206807;28;20086;-85
2024/02/04 16:53:56;;;;;;;0.40;0.40;;;;;;;;;;10211931;28;20063;-85
2024/02/04 16:58:59;;;;;;;0.77;0.40;;;;;;;;;;10205104;28;20051;-84
2024/02/04 17:04:05;;;;;;;0.45;0.45;;;;;;;;;;10207716;28;20051;-83
2024/02/04 17:09:14;;;;;;;2.25;1.63;;;;;;;;;;10204937;29;20070;-84
2024/02/04 17:14:18;;;;;;;0.30;0.30;;;;;;;;;;10215244;28;20059;-84
2024/02/04 17:19:34;;;;;;;0.40;0.35;;;;;;;;;;10208864;28;20511;-84
2024/02/04 17:24:42;;;;;;;0.30;0.30;;;;;;;;;;10200816;28;20052;-85
2024/02/04 17:29:46;;;;;;;0.45;0.40;;;;;;;;;;10208462;28;20071;-84
2024/02/04 17:34:51;;;;;;;0.47;0.47;;;;;;;;;;10201897;28;20048;-85
2024/02/04 17:39:55;;;;;;;0.43;0.40;;;;;;;;;;10219943;28;20067;-84
2024/02/04 17:44:58;;;;;;;0.57;0.57;;;;;;;;;;10203730;28;20074;-85
2024/02/04 17:50:10;;;;;;;0.22;0.22;;;;;;;;;;10208208;28;20135;-85
2024/02/04 17:55:14;;;;;;;0.85;0.32;;;;;;;;;;10200135;28;20040;-85
2024/02/04 18:00:19;;;;;;;0.30;0.30;;;;;;;;;;10200974;28;20066;-85
2024/02/04 18:05:24;;;;;;;0.35;0.30;;;;;;;;;;10186007;28;20052;-84
2024/02/04 18:10:28;;;;;;;0.57;0.40;;;;;;;;;;10194111;28;20132;-84
2024/02/04 18:15:32;;;;;;;0.50;0.50;;;;;;;;;;10188731;29;20051;-83
2024/02/04 18:20:42;;;;;;;0.45;0.40;;;;;;;;;;10192741;28;20051;-84
2024/02/04 18:25:48;;;;;;;0.75;0.30;;;;;;;;;;10187046;29;20464;-85
2024/02/04 18:30:51;;;;;;;0.82;0.38;;;;;;;;;;10197518;28;20503;-85
2024/02/04 18:35:56;;;;;;;0.20;0.20;;;;;;;;;;10198814;28;20059;-84
2024/02/04 18:41:03;;;;;;;0.57;0.57;;;;;;;;;;10198419;29;20150;-84
2024/02/04 18:46:08;;;;;;;0.60;0.52;;;;;;;;;;10208889;28;20768;-85
2024/02/04 18:51:12;;;;;;;1.08;1.00;;;;;;;;;;10196827;28;20062;-84
2024/02/04 18:56:16;;;;;;;0.80;0.77;;;;;;;;;;10192869;29;20095;-84
2024/02/04 19:01:23;;;;;;;3.55;1.00;;;;;;;;;;10194959;29;20040;-84
2024/02/04 19:06:30;;;;;;;1.73;1.00;;;;;;;;;;10197499;28;20052;-84
2024/02/04 19:11:33;;;;;;;0.80;0.57;;;;;;;;;;10204405;28;20535;-84
2024/02/04 19:16:49;;;;;;;1.90;1.58;;;;;;;;;;10212291;28;20044;-86
2024/02/04 19:22:02;;;;;;;1.58;0.90;;;;;;;;;;10197224;29;20056;-84
2024/02/04 19:27:06;;;;;;;8.10;4.03;;;;;;;;;;10195975;28;20063;-84
2024/02/04 19:32:10;;;;;;;6.55;3.35;;;;;;;;;;10204944;28;20062;-84
2024/02/04 19:37:15;;;;;;;1.83;1.30;;;;;;;;;;10189399;29;22199;-83
2024/02/04 19:42:18;;;;;;;0.98;0.80;;;;;;;;;;10184014;28;20059;-83
2024/02/04 19:47:23;;;;;;;0.93;0.70;;;;;;;;;;10185788;29;20043;-82
2024/02/04 19:52:27;;;;;;;1.20;0.63;;;;;;;;;;10194776;29;20058;-83
2024/02/04 19:57:32;;;;;;;2.20;1.20;;;;;;;;;;10185388;29;20079;-83
2024/02/04 20:02:36;;;;;;;0.75;0.50;;;;;;;;;;10177530;29;20535;-82
2024/02/04 20:07:41;;;;;;;0.80;0.50;;;;;;;;;;10177973;28;20051;-82
2024/02/04 20:12:49;;;;;;;1.13;0.73;;;;;;;;;;10185586;29;20062;-82
2024/02/04 20:17:52;;;;;;;0.55;0.55;;;;;;;;;;10191484;29;20052;-82
2024/02/04 20:22:59;;;;;;;0.40;0.40;;;;;;;;;;10185399;29;20047;-82
2024/02/04 20:28:03;;;;;;;0.37;0.37;;;;;;;;;;10188773;29;20107;-82
2024/02/04 20:33:08;;;;;;;0.52;0.50;;;;;;;;;;10193508;28;20063;-82
2024/02/04 20:38:16;;;;;;;1.60;1.23;;;;;;;;;;10188898;28;20062;-82
2024/02/04 21:38:10;;;;;;;2.03;0.95;;;;;;;;;;10180860;29;20106;-86
2024/02/04 21:43:14;;;;;;;1.35;0.80;;;;;;;;;;10184848;28;20054;-85
2024/02/04 21:48:20;;;;;;;0.77;0.57;;;;;;;;;;10188967;29;20051;-84
2024/02/04 21:53:26;;;;;;;0.82;0.40;;;;;;;;;;10198957;28;20102;-83
2024/02/04 21:58:29;;;;;;;1.88;0.70;;;;;;;;;;10184711;28;20724;-83
2024/02/04 22:03:34;;;;;;;1.13;0.60;;;;;;;;;;10183513;28;20111;-83
2024/02/04 22:08:38;;;;;;;0.68;0.43;;;;;;;;;;10187333;28;20058;-83
2024/02/04 22:13:42;;;;;;;0.50;0.40;;;;;;;;;;10193418;28;20138;-83
2024/02/04 22:18:45;;;;;;;0.50;0.40;;;;;;;;;;10188729;28;20064;-83
2024/02/04 22:23:51;;;;;;;0.68;0.43;;;;;;;;;;10188491;28;20483;-84
2024/02/04 22:28:54;;;;;;;0.80;0.70;;;;;;;;;;10190062;28;20765;-82
2024/02/04 22:33:57;;;;;;;2.08;1.15;;;;;;;;;;10188743;28;20040;-82
2024/02/04 22:39:03;;;;;;;3.15;1.73;;;;;;;;;;10189131;28;20542;-83
2024/02/04 22:44:06;;;;;;;7.38;3.22;;;;;;;;;;10190647;28;20155;-83
2024/02/04 22:49:10;;;;;;;5.90;2.80;;;;;;;;;;10188259;28;20062;-83
2024/02/04 22:54:15;;;;;;;6.28;2.85;;;;;;;;;;10188595;28;20671;-83
2024/02/04 22:59:18;;;;;;;5.28;2.88;;;;;;;;;;10186147;28;20086;-83
2024/02/04 23:04:22;;;;;;;3.58;1.95;;;;;;;;;;10186355;28;20059;-83
2024/02/04 23:09:26;;;;;;;4.53;2.30;;;;;;;;;;10220977;23;20057;-75
2024/02/04 23:14:30;;;;;;;2.88;1.67;;;;;;;;;;10237117;28;20047;-74
2024/02/04 23:19:33;;;;;;;2.55;1.60;;;;;;;;;;10249706;28;20051;-74
2024/02/04 23:24:38;;;;;;;2.90;1.30;;;;;;;;;;10232458;28;20134;-74
2024/02/04 23:29:41;;;;;;;7.45;3.45;;;;;;;;;;10231444;28;20510;-74
2024/02/04 23:34:45;;;;;;;0.40;0.40;;;;;;;;;;10233860;28;20143;-74
2024/02/04 23:39:50;;;;;;;2.20;1.00;;;;;;;;;;10234882;28;20063;-75
2024/02/04 23:44:53;;;;;;;0.70;0.60;;;;;;;;;;10238610;28;20130;-74
2024/02/04 23:49:56;;;;;;;3.25;1.80;;;;;;;;;;10231387;28;20051;-74
2024/02/04 23:55:01;;;;;;;1.48;1.00;;;;;;;;;;10234794;28;20106;-75
